createdAt,value
2019-01-18T00:00:37.653Z,99.99
2019-01-18T00:01:37.663Z,99.99
2019-01-18T00:02:37.630Z,99.48
2019-01-18T00:03:37.589Z,99.77
2019-01-18T00:04:37.578Z,99.67
2019-01-18T00:05:47.279Z,99.77
2019-01-18T00:07:42.090Z,99.99
2019-01-18T00:08:42.016Z,99.99
2019-01-18T00:09:42.022Z,99.99
2019-01-18T00:10:41.995Z,99.96
2019-01-18T00:11:41.995Z,99.99
2019-01-18T00:12:41.966Z,99.58
2019-01-18T00:13:41.953Z,99.48
2019-01-18T00:14:41.942Z,99.48
2019-01-18T00:15:41.967Z,99.99
2019-01-18T00:16:41.973Z,99.77
2019-01-18T00:17:41.936Z,99.58
2019-01-18T00:18:41.903Z,99.99
2019-01-18T00:19:41.922Z,99.99
2019-01-18T00:20:41.873Z,99.99
2019-01-18T00:21:41.855Z,99.99
2019-01-18T00:22:41.854Z,99.99
2019-01-18T00:23:41.857Z,99.99
2019-01-18T00:24:41.817Z,99.99
2019-01-18T00:25:41.827Z,99.99
2019-01-18T00:26:50.470Z,99.99
2019-01-18T00:28:57.619Z,99.99
2019-01-18T00:29:57.517Z,99.99
2019-01-18T00:30:57.503Z,99.99
2019-01-18T00:31:57.490Z,99.99
2019-01-18T00:33:06.142Z,99.99
2019-01-18T00:35:02.966Z,99.99
2019-01-18T00:36:02.940Z,99.99
2019-01-18T00:37:12.462Z,99.99
2019-01-18T00:39:07.402Z,99.99
2019-01-18T00:40:07.371Z,99.99
2019-01-18T00:41:07.370Z,99.99
2019-01-18T00:42:07.352Z,99.99
2019-01-18T00:43:07.335Z,99.99
2019-01-18T00:44:07.321Z,99.99
2019-01-18T00:45:07.312Z,99.99
2019-01-18T00:46:07.297Z,99.99
2019-01-18T00:47:07.281Z,99.99
2019-01-18T00:48:07.276Z,99.99
2019-01-18T00:49:07.272Z,99.99
2019-01-18T00:50:07.270Z,99.99
2019-01-18T00:51:07.245Z,99.99
2019-01-18T00:52:07.243Z,99.99
2019-01-18T00:53:07.220Z,99.99
2019-01-18T00:54:07.199Z,99.99
2019-01-18T00:55:07.204Z,99.99
2019-01-18T00:56:07.179Z,99.99
2019-01-18T00:57:07.163Z,99.99
2019-01-18T00:58:07.161Z,99.99
2019-01-18T00:59:07.138Z,99.99
2019-01-18T01:00:07.130Z,99.99
2019-01-18T01:01:07.119Z,99.99
2019-01-18T01:02:07.114Z,99.99
2019-01-18T01:03:07.097Z,99.99
2019-01-18T01:04:07.084Z,99.99
2019-01-18T01:05:07.076Z,99.99
2019-01-18T01:06:07.054Z,99.99
2019-01-18T01:07:07.042Z,99.99
2019-01-18T01:08:07.080Z,99.99
2019-01-18T01:09:07.021Z,99.99
2019-01-18T01:10:07.010Z,99.99
2019-01-18T01:11:07.007Z,99.99
2019-01-18T01:12:06.995Z,99.99
2019-01-18T01:13:06.970Z,99.99
2019-01-18T01:14:07.027Z,99.99
2019-01-18T01:15:06.947Z,99.77
2019-01-18T01:16:06.946Z,99.77
2019-01-18T01:17:06.925Z,99.86
2019-01-18T01:18:06.930Z,99.71
2019-01-18T01:19:06.913Z,99.67
2019-01-18T01:20:06.888Z,99.58
2019-01-18T01:21:06.889Z,99.77
2019-01-18T01:22:06.860Z,99.39
2019-01-18T01:23:06.860Z,99.10
2019-01-18T01:24:06.838Z,99.67
2019-01-18T01:25:06.840Z,99.67
2019-01-18T01:26:06.816Z,99.29
2019-01-18T01:27:06.808Z,99.29
2019-01-18T01:28:06.820Z,99.29
2019-01-18T01:29:06.776Z,99.39
2019-01-18T01:30:06.761Z,99.67
2019-01-18T01:31:06.757Z,99.48
2019-01-18T01:32:06.794Z,99.58
2019-01-18T01:33:06.734Z,99.10
2019-01-18T01:34:06.722Z,99.24
2019-01-18T01:35:06.711Z,99.67
2019-01-18T01:36:06.690Z,99.48
2019-01-18T01:37:06.686Z,99.39
2019-01-18T01:38:06.699Z,99.90
2019-01-18T01:39:06.668Z,99.77
2019-01-18T01:40:06.666Z,99.05
2019-01-18T01:41:06.632Z,99.10
2019-01-18T01:42:06.626Z,99.48
2019-01-18T01:43:06.645Z,99.29
2019-01-18T01:44:06.596Z,99.67
2019-01-18T01:45:06.617Z,99.39
2019-01-18T01:46:06.610Z,99.48
2019-01-18T01:47:06.558Z,99.48
2019-01-18T01:48:06.559Z,99.20
2019-01-18T01:49:06.561Z,99.77
2019-01-18T01:50:06.570Z,99.29
2019-01-18T01:51:06.506Z,98.77
2019-01-18T01:52:06.496Z,99.52
2019-01-18T01:53:06.515Z,98.82
2019-01-18T01:54:06.498Z,99.39
2019-01-18T01:55:06.465Z,99.39
2019-01-18T01:56:06.454Z,99.58
2019-01-18T01:57:06.437Z,98.91
2019-01-18T01:58:06.442Z,98.72
2019-01-18T01:59:06.416Z,98.96
2019-01-18T02:00:06.418Z,98.44
2019-01-18T02:01:06.389Z,98.54
2019-01-18T02:02:06.372Z,98.35
2019-01-18T02:03:06.366Z,98.44
2019-01-18T02:04:06.357Z,98.54
2019-01-18T02:05:06.344Z,98.44
2019-01-18T02:06:06.340Z,98.06
2019-01-18T02:07:06.321Z,98.16
2019-01-18T02:08:06.302Z,97.97
2019-01-18T02:09:06.297Z,97.87
2019-01-18T02:10:06.297Z,97.78
2019-01-18T02:11:06.268Z,98.06
2019-01-18T02:12:06.255Z,98.44
2019-01-18T02:13:06.260Z,98.44
2019-01-18T02:14:06.250Z,98.39
2019-01-18T02:15:06.224Z,98.72
2019-01-18T02:16:06.218Z,98.72
2019-01-18T02:17:06.198Z,98.44
2019-01-18T02:18:06.182Z,98.82
2019-01-18T02:19:06.196Z,98.44
2019-01-18T02:20:06.162Z,98.54
2019-01-18T02:21:06.150Z,98.49
2019-01-18T02:22:06.137Z,98.77
2019-01-18T02:23:06.118Z,98.68
2019-01-18T02:24:06.122Z,98.96
2019-01-18T02:25:06.103Z,98.77
2019-01-18T02:26:06.114Z,98.77
2019-01-18T02:27:06.076Z,98.77
2019-01-18T02:28:06.061Z,99.05
2019-01-18T02:29:06.049Z,99.15
2019-01-18T02:30:06.039Z,99.33
2019-01-18T02:31:06.027Z,99.71
2019-01-18T02:32:06.022Z,99.15
2019-01-18T02:33:06.002Z,99.43
2019-01-18T02:34:05.997Z,99.33
2019-01-18T02:35:05.985Z,99.71
2019-01-18T02:36:05.972Z,99.62
2019-01-18T02:37:05.952Z,99.62
2019-01-18T02:38:05.947Z,99.71
2019-01-18T02:39:05.932Z,99.99
2019-01-18T02:40:05.921Z,99.90
2019-01-18T02:41:05.902Z,99.99
2019-01-18T02:42:05.902Z,99.99
2019-01-18T02:43:05.888Z,99.99
2019-01-18T02:44:05.877Z,99.99
2019-01-18T02:45:05.857Z,99.99
2019-01-18T02:46:05.845Z,99.99
2019-01-18T02:47:05.854Z,99.99
2019-01-18T02:48:05.832Z,99.99
2019-01-18T02:49:05.839Z,99.99
2019-01-18T02:50:05.801Z,99.99
2019-01-18T02:51:05.788Z,99.90
2019-01-18T02:52:05.773Z,99.99
2019-01-18T02:53:05.771Z,99.99
2019-01-18T02:54:05.771Z,99.99
2019-01-18T02:55:05.771Z,99.99
2019-01-18T02:56:05.721Z,99.99
2019-01-18T02:57:05.719Z,99.99
2019-01-18T02:58:05.751Z,99.99
2019-01-18T03:14:23.444Z,99.99
2019-01-18T03:15:23.421Z,99.99
2019-01-18T03:16:23.389Z,99.99
2019-01-18T03:17:23.375Z,99.99
2019-01-18T03:18:23.379Z,99.99
2019-01-18T03:19:23.344Z,99.99
2019-01-18T03:20:23.334Z,99.99
2019-01-18T03:21:23.325Z,99.99
2019-01-18T03:22:23.304Z,99.99
2019-01-18T03:23:23.287Z,99.99
2019-01-18T03:24:23.275Z,99.99
2019-01-18T03:25:23.263Z,99.99
2019-01-18T03:26:23.261Z,99.99
2019-01-18T03:27:23.240Z,99.99
2019-01-18T03:28:23.218Z,99.99
2019-01-18T03:29:23.217Z,99.99
2019-01-18T03:30:23.197Z,99.99
2019-01-18T03:31:23.201Z,99.99
2019-01-18T03:32:23.174Z,99.99
2019-01-18T03:33:23.170Z,99.99
2019-01-18T03:34:23.144Z,99.99
2019-01-18T03:35:23.142Z,99.99
2019-01-18T03:36:23.117Z,99.99
2019-01-18T03:37:23.140Z,99.99
2019-01-18T03:38:23.104Z,99.99
2019-01-18T03:39:23.084Z,99.99
2019-01-18T03:40:23.099Z,99.99
2019-01-18T03:41:23.060Z,99.99
2019-01-18T03:42:23.045Z,99.99
2019-01-18T03:43:23.056Z,99.99
2019-01-18T03:44:23.025Z,99.99
2019-01-18T03:45:23.016Z,99.99
2019-01-18T03:46:23.033Z,99.99
2019-01-18T03:47:22.991Z,99.99
2019-01-18T03:48:22.979Z,99.99
2019-01-18T03:49:22.962Z,99.99
2019-01-18T03:50:22.972Z,99.99
2019-01-18T03:51:22.940Z,99.99
2019-01-18T03:52:22.920Z,99.99
2019-01-18T03:53:22.949Z,99.99
2019-01-18T03:54:22.933Z,99.99
2019-01-18T03:55:23.058Z,99.99
2019-01-18T03:56:22.872Z,99.99
2019-01-18T03:57:22.883Z,99.99
2019-01-18T03:58:22.850Z,99.99
2019-01-18T03:59:22.854Z,99.99
2019-01-18T04:00:26.226Z,99.99
2019-01-18T04:01:31.474Z,99.99
2019-01-18T04:03:27.289Z,99.99
2019-01-18T04:04:27.851Z,99.99
2019-01-18T04:05:27.246Z,99.99
2019-01-18T04:06:27.247Z,99.99
2019-01-18T04:07:27.223Z,99.99
2019-01-18T04:08:27.207Z,99.99
2019-01-18T04:09:27.206Z,99.99
2019-01-18T04:10:27.186Z,99.99
2019-01-18T04:11:27.173Z,99.99
2019-01-18T04:12:27.159Z,99.99
2019-01-18T04:13:27.148Z,99.99
2019-01-18T04:14:27.138Z,99.99
2019-01-18T04:15:27.128Z,99.99
2019-01-18T04:16:27.113Z,99.99
2019-01-18T04:17:27.093Z,99.99
2019-01-18T04:18:27.107Z,99.99
2019-01-18T04:19:27.096Z,99.99
2019-01-18T04:20:27.064Z,99.99
2019-01-18T04:21:27.769Z,99.99
2019-01-18T04:22:27.038Z,99.99
2019-01-18T04:23:27.034Z,99.99
2019-01-18T04:24:27.020Z,99.99
2019-01-18T04:25:27.056Z,99.99
2019-01-18T04:26:27.021Z,99.99
2019-01-18T04:27:27.008Z,99.99
2019-01-18T04:28:27.013Z,99.99
2019-01-18T04:29:26.959Z,99.99
2019-01-18T04:30:33.318Z,99.99
2019-01-18T04:31:26.940Z,99.99
2019-01-18T04:32:26.917Z,99.99
2019-01-18T04:33:26.902Z,99.99
2019-01-18T04:34:26.896Z,99.99
2019-01-18T04:35:26.895Z,99.99
2019-01-18T04:36:26.892Z,99.99
2019-01-18T04:37:26.857Z,99.99
2019-01-18T04:38:26.847Z,99.99
2019-01-18T04:39:26.832Z,99.99
2019-01-18T04:40:26.861Z,99.99
2019-01-18T04:41:26.814Z,99.99
2019-01-18T04:42:26.799Z,99.99
2019-01-18T04:43:26.782Z,99.99
2019-01-18T04:44:26.773Z,99.99
2019-01-18T04:45:26.758Z,99.99
2019-01-18T04:46:26.758Z,99.99
2019-01-18T04:47:26.739Z,99.99
2019-01-18T04:48:26.723Z,99.99
2019-01-18T04:49:26.729Z,99.99
2019-01-18T04:50:26.705Z,99.99
2019-01-18T04:51:26.717Z,99.99
2019-01-18T04:52:28.110Z,99.99
2019-01-18T04:53:26.667Z,99.99
2019-01-18T04:54:26.655Z,99.99
2019-01-18T04:55:26.647Z,99.99
2019-01-18T04:56:26.634Z,99.99
2019-01-18T04:57:26.623Z,99.99
2019-01-18T04:58:26.702Z,99.99
2019-01-18T04:59:26.593Z,99.99
2019-01-18T05:00:26.632Z,99.99
2019-01-18T05:01:26.619Z,99.99
2019-01-18T05:02:26.552Z,99.99
2019-01-18T05:03:26.547Z,99.99
2019-01-18T05:04:26.533Z,99.99
2019-01-18T05:05:26.514Z,99.99
2019-01-18T05:06:26.506Z,99.99
2019-01-18T05:07:26.500Z,99.99
2019-01-18T05:08:26.484Z,99.99
2019-01-18T05:09:26.477Z,99.99
2019-01-18T05:10:26.470Z,99.99
2019-01-18T05:11:26.453Z,99.99
2019-01-18T05:12:26.433Z,99.99
2019-01-18T05:13:26.422Z,99.99
2019-01-18T05:14:26.403Z,99.99
2019-01-18T05:15:26.397Z,99.99
2019-01-18T05:16:26.382Z,99.99
2019-01-18T05:17:26.377Z,99.99
2019-01-18T05:18:26.362Z,99.99
2019-01-18T05:19:26.356Z,99.99
2019-01-18T05:20:26.366Z,99.99
2019-01-18T05:21:26.371Z,99.99
2019-01-18T05:22:26.315Z,99.99
2019-01-18T05:23:26.305Z,99.99
2019-01-18T05:24:26.300Z,99.99
2019-01-18T05:25:26.276Z,99.99
2019-01-18T05:26:26.270Z,99.99
2019-01-18T05:27:26.248Z,99.99
2019-01-18T05:28:26.247Z,99.99
2019-01-18T05:29:26.228Z,99.99
2019-01-18T05:30:26.221Z,99.99
2019-01-18T05:31:26.220Z,99.99
2019-01-18T05:32:26.411Z,99.99
2019-01-18T05:33:34.844Z,99.99
2019-01-18T05:35:30.657Z,99.99
2019-01-18T05:36:30.627Z,99.99
2019-01-18T05:37:30.608Z,99.99
2019-01-18T05:38:40.259Z,99.99
2019-01-18T05:40:35.140Z,99.99
2019-01-18T05:41:35.082Z,99.99
2019-01-18T05:42:35.063Z,99.99
2019-01-18T05:43:35.034Z,99.99
2019-01-18T05:44:35.034Z,99.99
2019-01-18T05:45:35.036Z,99.99
2019-01-18T05:46:35.018Z,99.99
2019-01-18T05:47:34.998Z,99.99
2019-01-18T05:48:34.967Z,99.99
2019-01-18T05:49:34.953Z,99.99
2019-01-18T05:50:34.948Z,99.99
2019-01-18T05:51:34.967Z,99.99
2019-01-18T05:52:34.920Z,99.99
2019-01-18T05:53:34.905Z,99.99
2019-01-18T05:54:34.933Z,99.99
2019-01-18T05:55:34.886Z,99.99
2019-01-18T05:56:34.882Z,99.99
2019-01-18T05:57:34.875Z,99.99
2019-01-18T05:58:34.859Z,99.99
2019-01-18T05:59:34.856Z,99.99
2019-01-18T06:00:34.837Z,99.99
2019-01-18T06:01:34.858Z,99.99
2019-01-18T06:02:34.804Z,99.99
2019-01-18T06:03:34.786Z,99.99
2019-01-18T06:04:34.778Z,99.99
2019-01-18T06:05:43.504Z,99.99
2019-01-18T06:07:40.320Z,99.99
2019-01-18T06:08:40.226Z,99.99
2019-01-18T06:09:40.266Z,99.99
2019-01-18T06:10:40.238Z,99.99
2019-01-18T06:11:40.216Z,99.99
2019-01-18T06:12:40.197Z,99.99
2019-01-18T06:13:40.174Z,99.99
2019-01-18T06:14:40.206Z,99.99
2019-01-18T06:15:40.606Z,99.99
2019-01-18T06:16:40.134Z,99.99
2019-01-18T06:17:40.142Z,99.99
2019-01-18T06:18:40.137Z,99.99
2019-01-18T06:19:40.149Z,99.99
2019-01-18T06:20:40.113Z,99.99
2019-01-18T06:21:40.089Z,99.99
2019-01-18T06:22:40.112Z,99.99
2019-01-18T06:23:40.063Z,99.99
2019-01-18T06:24:40.090Z,99.99
2019-01-18T06:25:40.073Z,99.99
2019-01-18T06:26:40.044Z,99.99
2019-01-18T06:27:40.008Z,99.99
2019-01-18T06:28:39.995Z,99.99
2019-01-18T06:29:40.019Z,99.99
2019-01-18T06:30:39.973Z,99.99
2019-01-18T06:31:39.967Z,99.99
2019-01-18T06:32:39.972Z,99.99
2019-01-18T06:33:39.940Z,99.99
2019-01-18T06:34:39.947Z,99.99
2019-01-18T06:35:39.910Z,99.99
2019-01-18T06:36:39.911Z,99.99
2019-01-18T06:37:39.908Z,99.99
2019-01-18T06:38:39.869Z,99.99
2019-01-18T06:39:39.871Z,99.99
2019-01-18T06:40:39.869Z,99.99
2019-01-18T06:41:39.875Z,99.99
2019-01-18T06:42:39.875Z,99.99
2019-01-18T06:43:39.819Z,99.99
2019-01-18T06:44:39.804Z,99.99
2019-01-18T06:45:39.816Z,99.99
2019-01-18T06:46:39.798Z,99.99
2019-01-18T06:47:39.810Z,99.99
2019-01-18T06:48:39.782Z,99.99
2019-01-18T06:49:39.736Z,99.99
2019-01-18T06:50:39.761Z,99.99
2019-01-18T06:51:39.721Z,99.99
2019-01-18T06:52:39.739Z,99.99
2019-01-18T06:53:39.748Z,99.99
2019-01-18T06:54:39.674Z,99.99
2019-01-18T06:55:39.688Z,99.99
2019-01-18T06:56:39.675Z,99.99
2019-01-18T06:57:49.356Z,99.99
2019-01-18T06:59:45.204Z,99.99
2019-01-18T07:00:45.174Z,99.99
2019-01-18T07:01:45.157Z,99.99
2019-01-18T07:02:45.122Z,99.99
2019-01-18T07:03:45.132Z,99.99
2019-01-18T07:04:45.131Z,99.99
2019-01-18T07:05:45.126Z,99.99
2019-01-18T07:06:45.117Z,99.99
2019-01-18T07:07:45.089Z,99.99
2019-01-18T07:08:45.066Z,99.99
2019-01-18T07:09:45.069Z,99.99
2019-01-18T07:10:45.071Z,99.99
2019-01-18T07:11:45.081Z,99.99
2019-01-18T07:12:45.037Z,99.99
2019-01-18T07:13:45.001Z,99.99
2019-01-18T07:14:45.001Z,99.99
2019-01-18T07:15:44.968Z,99.99
2019-01-18T07:16:44.959Z,99.99
2019-01-18T07:17:44.970Z,99.99
2019-01-18T07:18:45.012Z,99.99
2019-01-18T07:19:44.957Z,99.99
2019-01-18T07:20:44.942Z,99.99
2019-01-18T07:21:44.955Z,99.99
2019-01-18T07:22:44.952Z,99.99
2019-01-18T07:23:44.904Z,99.99
2019-01-18T07:24:44.878Z,99.99
2019-01-18T07:25:44.890Z,99.99
2019-01-18T07:26:44.852Z,99.99
2019-01-18T07:27:44.828Z,99.99
2019-01-18T07:28:44.840Z,99.99
2019-01-18T07:29:44.846Z,99.99
2019-01-18T07:32:33.299Z,99.99
2019-01-18T07:33:32.879Z,99.99
2019-01-18T07:35:28.758Z,99.99
2019-01-18T07:36:28.677Z,99.99
2019-01-18T07:38:33.164Z,99.99
2019-01-18T07:39:33.160Z,99.99
2019-01-18T07:40:33.099Z,99.99
2019-01-18T07:41:33.118Z,99.99
2019-01-18T07:42:33.101Z,99.99
2019-01-18T07:43:33.107Z,99.99
2019-01-18T07:44:33.037Z,99.99
2019-01-18T07:45:33.050Z,99.99
2019-01-18T07:46:33.040Z,99.99
2019-01-18T07:47:33.045Z,99.99
2019-01-18T07:48:33.035Z,99.99
2019-01-18T07:49:32.982Z,99.99
2019-01-18T07:50:32.977Z,99.99
2019-01-18T07:51:32.964Z,99.99
2019-01-18T07:52:32.972Z,99.99
2019-01-18T07:53:32.974Z,99.99
2019-01-18T07:54:32.923Z,99.99
2019-01-18T07:55:32.923Z,99.99
2019-01-18T07:56:32.929Z,99.99
2019-01-18T07:57:32.899Z,99.99
2019-01-18T07:58:32.880Z,99.99
2019-01-18T07:59:32.860Z,99.99
2019-01-18T08:00:32.852Z,99.99
2019-01-18T08:01:32.863Z,99.99
2019-01-18T08:02:32.849Z,99.99
2019-01-18T08:03:32.831Z,99.99
2019-01-18T08:04:32.838Z,99.99
2019-01-18T08:26:56.971Z,99.99
2019-01-18T08:27:56.884Z,99.99
2019-01-18T08:28:56.882Z,99.99
2019-01-18T08:29:56.931Z,99.99
2019-01-18T08:30:56.874Z,99.99
2019-01-18T08:31:56.843Z,99.99
2019-01-18T08:32:56.827Z,99.99
2019-01-18T08:33:58.158Z,99.99
2019-01-18T08:34:56.799Z,99.99
2019-01-18T08:35:56.822Z,99.99
2019-01-18T08:36:56.776Z,99.99
2019-01-18T08:37:56.789Z,99.99
2019-01-18T08:38:56.773Z,99.99
2019-01-18T08:39:56.749Z,99.99
2019-01-18T08:40:56.729Z,99.99
2019-01-18T08:41:56.715Z,99.99
2019-01-18T08:42:56.701Z,99.99
2019-01-18T08:43:56.715Z,99.99
2019-01-18T08:44:56.673Z,99.99
2019-01-18T08:45:56.678Z,99.99
2019-01-18T08:46:56.678Z,99.99
2019-01-18T08:47:56.674Z,99.99
2019-01-18T08:48:56.655Z,99.99
2019-01-18T08:49:56.635Z,99.99
2019-01-18T08:50:56.643Z,99.99
2019-01-18T08:51:56.618Z,99.99
2019-01-18T08:52:56.592Z,99.99
2019-01-18T08:53:56.618Z,99.99
2019-01-18T08:54:56.575Z,99.99
2019-01-18T08:55:56.554Z,99.99
2019-01-18T08:56:56.555Z,99.99
2019-01-18T08:57:56.555Z,99.99
2019-01-18T08:58:56.547Z,99.99
2019-01-18T08:59:56.508Z,99.99
2019-01-18T09:00:56.517Z,99.99
2019-01-18T09:01:56.490Z,99.99
2019-01-18T09:02:56.483Z,99.99
2019-01-18T09:03:56.479Z,99.99
2019-01-18T09:04:56.438Z,99.99
2019-01-18T09:05:56.444Z,99.99
2019-01-18T09:06:56.438Z,99.99
2019-01-18T09:07:56.425Z,99.99
2019-01-18T09:08:56.408Z,99.99
2019-01-18T09:09:56.424Z,99.99
2019-01-18T09:10:56.391Z,99.99
2019-01-18T09:11:56.385Z,99.99
2019-01-18T09:12:56.386Z,99.99
2019-01-18T09:13:59.880Z,99.99
2019-01-18T09:14:56.329Z,99.99
2019-01-18T09:15:56.309Z,99.99
2019-01-18T09:16:56.308Z,99.99
2019-01-18T09:17:56.321Z,99.99
2019-01-18T09:18:56.325Z,99.99
2019-01-18T09:19:56.268Z,99.99
2019-01-18T09:20:56.256Z,99.99
2019-01-18T09:21:56.250Z,99.99
2019-01-18T09:22:56.238Z,99.99
2019-01-18T09:23:56.259Z,99.99
2019-01-18T09:24:56.232Z,99.99
2019-01-18T09:25:56.205Z,99.99
2019-01-18T09:26:56.180Z,99.99
2019-01-18T09:27:56.169Z,99.99
2019-01-18T09:28:56.160Z,99.99
2019-01-18T09:29:56.156Z,99.99
2019-01-18T09:30:56.159Z,99.99
2019-01-18T09:31:56.125Z,99.99
2019-01-18T09:32:56.109Z,99.99
2019-01-18T09:33:56.094Z,99.99
2019-01-18T09:34:56.110Z,99.99
2019-01-18T09:35:56.107Z,99.99
2019-01-18T09:36:56.059Z,99.99
2019-01-18T09:37:56.051Z,99.99
2019-01-18T09:39:04.842Z,99.99
2019-01-18T09:41:00.575Z,99.99
2019-01-18T09:42:00.533Z,99.99
2019-01-18T09:43:00.527Z,99.99
2019-01-18T09:44:00.545Z,99.99
2019-01-18T09:45:00.482Z,99.99
2019-01-18T09:46:00.469Z,99.99
2019-01-18T09:47:00.464Z,99.99
2019-01-18T09:48:00.479Z,99.99
2019-01-18T09:49:00.433Z,99.99
2019-01-18T09:50:00.450Z,99.99
2019-01-18T09:51:00.416Z,99.99
2019-01-18T09:52:00.400Z,99.99
2019-01-18T09:53:00.428Z,99.99
2019-01-18T09:54:00.411Z,99.99
2019-01-18T09:55:00.417Z,99.99
2019-01-18T09:56:00.409Z,99.99
2019-01-18T09:57:00.405Z,99.99
2019-01-18T09:58:00.387Z,99.67
2019-01-18T09:59:00.364Z,99.44
2019-01-18T10:00:00.425Z,99.63
2019-01-18T10:01:00.293Z,99.72
2019-01-18T10:02:00.314Z,99.25
2019-01-18T10:03:08.990Z,98.96
2019-01-18T10:05:05.139Z,98.11
2019-01-18T10:06:04.719Z,98.30
2019-01-18T10:07:04.811Z,98.30
2019-01-18T10:08:04.737Z,98.39
2019-01-18T10:09:14.539Z,97.83
2019-01-18T10:11:11.185Z,97.73
2019-01-18T10:12:10.249Z,97.92
2019-01-18T10:13:10.258Z,97.92
2019-01-18T10:14:10.176Z,97.83
2019-01-18T10:15:10.179Z,97.64
2019-01-18T10:16:10.117Z,97.64
2019-01-18T10:17:10.163Z,97.54
2019-01-18T10:18:10.123Z,97.26
2019-01-18T10:19:10.120Z,97.54
2019-01-18T10:20:10.097Z,97.45
2019-01-18T10:21:10.106Z,97.73
2019-01-18T10:22:10.058Z,97.64
2019-01-18T10:23:10.056Z,97.26
2019-01-18T10:24:10.049Z,97.07
2019-01-18T10:25:10.060Z,97.07
2019-01-18T10:26:10.006Z,97.35
2019-01-18T10:27:10.067Z,96.88
2019-01-18T10:28:10.007Z,97.07
2019-01-18T10:29:10.022Z,96.88
2019-01-18T10:30:10.039Z,97.16
2019-01-18T10:31:09.974Z,97.26
2019-01-18T10:32:10.006Z,96.69
2019-01-18T10:33:10.000Z,96.78
2019-01-18T10:34:09.923Z,96.69
2019-01-18T10:35:09.921Z,96.31
2019-01-18T10:36:09.940Z,96.64
2019-01-18T10:37:09.907Z,96.26
2019-01-18T10:38:09.922Z,95.22
2019-01-18T10:39:09.952Z,94.56
2019-01-18T10:40:09.919Z,93.99
2019-01-18T10:41:09.880Z,94.27
2019-01-18T10:42:09.842Z,94.27
2019-01-18T10:43:09.955Z,94.37
2019-01-18T10:44:09.840Z,94.08
2019-01-18T10:45:09.830Z,93.13
2019-01-18T10:46:09.803Z,93.99
2019-01-18T10:47:09.813Z,93.13
2019-01-18T10:48:09.810Z,92.85
2019-01-18T10:49:09.815Z,92.66
2019-01-18T10:50:09.793Z,92.85
2019-01-18T10:51:09.750Z,92.76
2019-01-18T10:52:09.741Z,91.99
2019-01-18T10:53:09.821Z,91.71
2019-01-18T10:54:09.719Z,91.80
2019-01-18T10:55:09.727Z,91.61
2019-01-18T10:56:09.707Z,91.71
2019-01-18T10:57:09.722Z,91.24
2019-01-18T10:58:09.765Z,91.99
2019-01-18T10:59:09.701Z,91.80
2019-01-18T11:00:09.690Z,91.05
2019-01-18T11:01:09.698Z,90.57
2019-01-18T11:02:09.675Z,90.00
2019-01-18T11:03:09.685Z,90.38
2019-01-18T11:04:09.659Z,89.91
2019-01-18T11:05:09.625Z,90.05
2019-01-18T11:06:09.594Z,89.29
2019-01-18T11:07:09.588Z,88.77
2019-01-18T11:08:09.596Z,88.48
2019-01-18T11:09:09.605Z,89.20
2019-01-18T11:10:09.621Z,89.58
2019-01-18T11:11:09.582Z,89.39
2019-01-18T11:12:09.556Z,89.48
2019-01-18T11:13:09.563Z,89.39
2019-01-18T11:14:09.592Z,89.34
2019-01-18T11:15:09.560Z,89.48
2019-01-18T11:16:09.544Z,89.29
2019-01-18T11:17:09.491Z,88.91
2019-01-18T11:18:09.499Z,89.20
2019-01-18T11:19:09.540Z,88.81
2019-01-18T11:20:09.560Z,88.62
2019-01-18T11:21:09.496Z,88.15
2019-01-18T11:22:09.476Z,88.34
2019-01-18T11:23:09.468Z,88.34
2019-01-18T11:24:09.417Z,88.43
2019-01-18T11:25:09.443Z,88.34
2019-01-18T11:26:09.400Z,87.77
2019-01-18T11:27:09.391Z,87.58
2019-01-18T11:28:09.428Z,87.20
2019-01-18T11:29:09.394Z,86.91
2019-01-18T11:30:09.430Z,87.01
2019-01-18T11:31:09.397Z,86.91
2019-01-18T11:32:13.673Z,86.25
2019-01-18T11:33:09.333Z,86.49
2019-01-18T11:34:09.368Z,85.11
2019-01-18T11:35:09.383Z,85.25
2019-01-18T11:36:09.379Z,85.25
2019-01-18T11:37:09.300Z,84.30
2019-01-18T11:38:09.328Z,83.54
2019-01-18T11:39:09.343Z,83.83
2019-01-18T11:40:09.295Z,85.06
2019-01-18T11:41:09.271Z,84.78
2019-01-18T11:42:09.295Z,84.11
2019-01-18T11:43:09.280Z,83.92
2019-01-18T11:44:09.258Z,82.78
2019-01-18T11:45:09.246Z,81.84
2019-01-18T11:46:09.215Z,82.50
2019-01-18T11:47:09.242Z,83.07
2019-01-18T11:48:09.263Z,83.20
2019-01-18T11:49:09.230Z,82.26
2019-01-18T11:50:09.186Z,82.82
2019-01-18T11:51:09.172Z,83.97
2019-01-18T11:52:09.188Z,82.82
2019-01-18T11:53:09.177Z,82.16
2019-01-18T11:54:09.175Z,80.74
2019-01-18T11:55:09.176Z,81.21
2019-01-18T11:56:09.132Z,81.49
2019-01-18T11:57:09.160Z,80.88
2019-01-18T11:58:09.099Z,81.84
2019-01-18T11:59:09.105Z,81.65
2019-01-18T12:00:09.129Z,81.49
2019-01-18T12:01:09.125Z,82.54
2019-01-18T12:02:15.026Z,81.87
2019-01-18T12:03:09.092Z,81.17
2019-01-18T12:04:09.082Z,81.17
2019-01-18T12:05:09.053Z,81.17
2019-01-18T12:06:09.031Z,81.93
2019-01-18T12:07:09.036Z,81.93
2019-01-18T12:08:09.059Z,82.12
2019-01-18T12:09:09.015Z,81.93
2019-01-18T12:10:09.002Z,81.55
2019-01-18T12:11:09.013Z,82.03
2019-01-18T12:12:08.987Z,82.40
2019-01-18T12:13:09.013Z,81.65
2019-01-18T12:14:08.971Z,81.45
2019-01-18T12:15:08.973Z,81.45
2019-01-18T12:16:08.947Z,82.88
2019-01-18T12:17:08.945Z,82.21
2019-01-18T12:18:08.958Z,80.79
2019-01-18T12:19:08.963Z,81.07
2019-01-18T12:20:08.910Z,80.32
2019-01-18T12:21:08.941Z,81.26
2019-01-18T12:22:08.896Z,80.79
2019-01-18T12:23:08.901Z,81.74
2019-01-18T12:24:08.909Z,82.50
2019-01-18T12:25:08.875Z,81.26
2019-01-18T12:26:08.865Z,80.60
2019-01-18T12:27:08.866Z,80.79
2019-01-18T12:28:08.854Z,81.13
2019-01-18T12:29:08.836Z,80.46
2019-01-18T12:30:08.836Z,81.36
2019-01-18T12:31:08.836Z,81.26
2019-01-18T12:32:08.810Z,81.26
2019-01-18T12:33:18.577Z,81.55
2019-01-18T12:35:13.355Z,80.65
2019-01-18T12:36:13.290Z,80.65
2019-01-18T12:37:13.272Z,79.99
2019-01-18T12:38:13.297Z,80.56
2019-01-18T12:39:21.963Z,81.07
2019-01-18T12:41:17.831Z,81.55
2019-01-18T12:42:17.795Z,81.65
2019-01-18T12:44:22.499Z,81.32
2019-01-18T12:45:22.463Z,81.51
2019-01-18T12:46:22.461Z,81.79
2019-01-18T12:47:22.484Z,81.98
2019-01-18T12:48:22.466Z,81.79
2019-01-18T12:49:22.422Z,82.27
2019-01-18T12:50:22.438Z,82.17
2019-01-18T12:51:22.401Z,81.65
2019-01-18T12:52:22.395Z,81.51
2019-01-18T12:53:22.414Z,81.60
2019-01-18T12:54:22.443Z,81.60
2019-01-18T12:55:22.400Z,80.94
2019-01-18T12:56:22.400Z,81.41
2019-01-18T12:57:22.344Z,81.32
2019-01-18T12:58:22.346Z,81.70
2019-01-18T12:59:22.407Z,81.98
2019-01-18T13:00:22.322Z,82.17
2019-01-18T13:01:22.317Z,81.88
2019-01-18T13:02:22.333Z,81.60
2019-01-18T13:03:22.324Z,81.70
2019-01-18T13:04:22.285Z,81.51
2019-01-18T13:05:22.278Z,80.71
2019-01-18T13:06:22.272Z,80.99
2019-01-18T13:07:22.271Z,82.04
2019-01-18T13:08:22.254Z,82.98
2019-01-18T13:09:22.229Z,83.55
2019-01-18T13:10:22.236Z,83.27
2019-01-18T13:11:22.248Z,83.46
2019-01-18T13:12:22.210Z,83.27
2019-01-18T13:13:22.200Z,83.84
2019-01-18T13:14:22.218Z,83.94
2019-01-18T13:15:22.175Z,83.65
2019-01-18T13:16:22.203Z,83.27
2019-01-18T13:17:22.189Z,83.55
2019-01-18T13:18:22.163Z,83.31
2019-01-18T13:19:22.182Z,82.98
2019-01-18T13:20:22.135Z,82.23
2019-01-18T13:21:22.154Z,82.46
2019-01-18T13:22:26.002Z,82.51
2019-01-18T13:23:22.098Z,82.32
2019-01-18T13:24:22.101Z,82.98
2019-01-18T13:25:22.081Z,83.27
2019-01-18T13:26:22.075Z,84.03
2019-01-18T13:27:22.109Z,83.84
2019-01-18T13:28:22.082Z,84.12
2019-01-18T13:29:22.109Z,83.74
2019-01-18T13:30:22.122Z,84.12
2019-01-18T13:31:22.118Z,84.03
2019-01-18T13:32:22.042Z,83.84
2019-01-18T13:33:22.026Z,83.69
2019-01-18T13:34:22.034Z,82.84
2019-01-18T13:37:20.887Z,80.99
2019-01-18T13:38:05.224Z,81.23
2019-01-18T13:56:36.468Z,81.37
2019-01-18T13:57:20.704Z,80.80
2019-01-18T13:58:20.771Z,80.62
2019-01-18T13:59:20.686Z,80.62
2019-01-18T14:00:20.628Z,81.66
2019-01-18T14:01:20.640Z,81.47
2019-01-18T14:02:20.616Z,82.04
2019-01-18T14:03:20.616Z,82.42
2019-01-18T14:04:20.613Z,82.79
2019-01-18T14:05:20.626Z,82.98
2019-01-18T14:06:20.658Z,82.89
2019-01-18T14:07:20.620Z,83.17
2019-01-18T14:08:20.623Z,82.98